Time;durP1;ratioP1;P1;durP2;ratioP2;P2;SDS_P1;SDS_P2;PMS_P1;PMS_P2;Temp;Humidity;BMP_temperature;BMP_pressure;BME280_temperature;BME280_humidity;BME280_pressure;Samples;Min_cycle;Max_cycle;Signal;HPM_P1;HPM_P2
2022/02/20 00:00:10;;;;;;;6.43;2.10;;;;;;;7.40;100.00;101147.50;5288154;28;20125;-79
2022/02/20 00:02:40;;;;;;;9.57;2.38;;;;;;;7.38;100.00;101166.31;5287716;28;20027;-80
2022/02/20 00:05:11;;;;;;;12.23;2.30;;;;;;;7.27;100.00;101159.25;5287344;28;20030;-79
2022/02/20 00:07:41;;;;;;;15.80;2.33;;;;;;;7.19;100.00;101156.44;5269724;28;20051;-79
2022/02/20 00:10:12;;;;;;;12.38;2.80;;;;;;;7.16;100.00;101153.19;5287553;28;20106;-79
2022/02/20 00:12:42;;;;;;;8.30;2.38;;;;;;;7.09;100.00;101168.91;5273868;28;20490;-80
2022/02/20 00:15:13;;;;;;;10.45;2.70;;;;;;;7.04;100.00;101176.47;5287298;28;20102;-79
2022/02/20 00:17:45;;;;;;;10.63;2.60;;;;;;;6.98;100.00;101183.19;5287585;28;20047;-79
2022/02/20 00:20:16;;;;;;;10.48;2.33;;;;;;;6.89;100.00;101189.34;5287538;28;20024;-79
2022/02/20 00:22:47;;;;;;;18.42;2.60;;;;;;;6.83;100.00;101200.53;5287270;28;20024;-79
2022/02/20 00:25:18;;;;;;;13.45;2.20;;;;;;;6.75;100.00;101203.88;5287354;28;20020;-79
2022/02/20 00:27:48;;;;;;;10.85;2.60;;;;;;;6.66;100.00;101211.81;5287674;28;20035;-79
2022/02/20 00:30:19;;;;;;;12.90;2.38;;;;;;;6.58;100.00;101211.63;5287129;28;20050;-79
2022/02/20 00:32:51;;;;;;;9.48;2.95;;;;;;;6.52;100.00;101214.81;5269677;28;20174;-79
2022/02/20 00:35:23;;;;;;;7.40;2.65;;;;;;;6.48;100.00;101224.91;5287077;28;20098;-79
2022/02/20 00:37:54;;;;;;;14.52;2.83;;;;;;;6.47;100.00;101225.84;5287260;28;20085;-79
2022/02/20 00:40:25;;;;;;;8.02;2.40;;;;;;;6.43;100.00;101232.44;5287149;28;20055;-79
2022/02/20 00:42:55;;;;;;;13.15;2.65;;;;;;;6.36;100.00;101225.94;5287129;28;20521;-79
2022/02/20 00:45:27;;;;;;;11.40;3.08;;;;;;;6.30;100.00;101229.97;5286242;28;20044;-79
2022/02/20 00:47:57;;;;;;;8.95;2.53;;;;;;;6.21;100.00;101230.72;5286845;28;20020;-79
2022/02/20 00:50:28;;;;;;;13.73;3.33;;;;;;;6.18;100.00;101239.00;5287103;28;20402;-79
2022/02/20 00:52:59;;;;;;;10.60;3.00;;;;;;;6.18;100.00;101233.66;5286743;28;20045;-79
2022/02/20 00:55:30;;;;;;;7.85;2.35;;;;;;;6.19;100.00;101248.69;5286622;28;20028;-79
2022/02/20 00:58:02;;;;;;;7.13;3.25;;;;;;;6.15;100.00;101247.22;5286612;28;20111;-79
2022/02/20 01:00:32;;;;;;;13.77;3.15;;;;;;;6.13;100.00;101244.72;5286331;28;20054;-79
2022/02/20 01:03:04;;;;;;;7.00;3.15;;;;;;;6.10;100.00;101250.28;5286336;28;20445;-79
2022/02/20 01:05:34;;;;;;;11.23;3.45;;;;;;;6.05;100.00;101252.47;5268041;28;20030;-79
2022/02/20 01:08:06;;;;;;;12.77;3.13;;;;;;;6.03;100.00;101253.59;5268545;28;20020;-79
2022/02/20 01:10:37;;;;;;;12.02;3.20;;;;;;;5.97;100.00;101262.91;5284963;28;20023;-80
2022/02/20 01:13:07;;;;;;;9.00;3.55;;;;;;;5.88;100.00;101259.16;5274842;28;20020;-79
2022/02/20 01:15:38;;;;;;;8.90;3.25;;;;;;;5.80;100.00;101261.59;5286189;28;20033;-79
2022/02/20 01:18:08;;;;;;;16.80;3.75;;;;;;;5.76;100.00;101259.31;5286589;28;20080;-79
2022/02/20 01:20:39;;;;;;;11.32;3.33;;;;;;;5.68;100.00;101263.47;5286256;28;20042;-79
2022/02/20 01:23:09;;;;;;;25.58;5.28;;;;;;;5.64;100.00;101269.16;5286156;28;20020;-79
2022/02/20 01:25:39;;;;;;;10.95;3.97;;;;;;;5.57;100.00;101268.81;5268492;28;20043;-79
2022/02/20 01:28:10;;;;;;;12.77;4.25;;;;;;;5.46;100.00;101260.81;5287181;28;20022;-79
2022/02/20 01:30:40;;;;;;;12.50;3.60;;;;;;;5.40;100.00;101274.63;5286503;28;20047;-79
2022/02/20 01:33:11;;;;;;;14.75;4.22;;;;;;;5.40;100.00;101278.13;5286314;28;20063;-79
2022/02/20 01:35:41;;;;;;;10.48;4.10;;;;;;;5.40;100.00;101267.47;5285861;28;20072;-79
2022/02/20 01:40:58;;;;;;;14.75;3.85;;;;;;;5.30;100.00;101279.81;5286035;28;20067;-79
2022/02/20 01:43:29;;;;;;;13.65;3.88;;;;;;;5.30;100.00;101279.81;5286299;28;20581;-79
2022/02/20 01:45:59;;;;;;;21.80;5.05;;;;;;;5.23;100.00;101278.63;5285617;28;20034;-78
2022/02/20 01:48:35;;;;;;;12.27;3.90;;;;;;;5.12;100.00;101275.94;5285934;28;20038;-78
2022/02/20 01:51:06;;;;;;;14.25;4.13;;;;;;;4.97;100.00;101271.84;5268300;28;20028;-75
2022/02/20 01:53:36;;;;;;;17.73;4.13;;;;;;;4.82;100.00;101272.09;5286289;28;20110;-78
2022/02/20 01:56:07;;;;;;;20.05;5.70;;;;;;;4.68;100.00;101269.63;5285209;28;20398;-78
2022/02/20 01:58:41;;;;;;;13.38;4.57;;;;;;;4.55;100.00;101274.19;5285719;28;20390;-78
2022/02/20 02:01:11;;;;;;;15.80;4.45;;;;;;;4.46;100.00;101272.22;5267297;28;20088;-78
2022/02/20 02:03:42;;;;;;;20.80;3.80;;;;;;;4.34;100.00;101261.56;5285481;28;20500;-78
2022/02/20 02:06:12;;;;;;;11.38;3.88;;;;;;;4.26;100.00;101269.25;5285503;28;20023;-78
2022/02/20 02:08:43;;;;;;;20.15;5.72;;;;;;;4.18;100.00;101265.50;5285764;28;20020;-78
2022/02/20 02:11:15;;;;;;;17.20;4.53;;;;;;;4.16;100.00;101266.44;5285169;28;20379;-78
2022/02/20 02:13:45;;;;;;;18.77;5.53;;;;;;;4.15;100.00;101266.56;5285544;28;20028;-78
2022/02/20 02:16:16;;;;;;;17.05;4.53;;;;;;;4.18;100.00;101254.88;5285379;28;20126;-78
2022/02/20 02:18:46;;;;;;;14.85;4.85;;;;;;;4.17;100.00;101269.97;5285565;28;20035;-78
2022/02/20 02:21:17;;;;;;;23.55;4.55;;;;;;;4.18;100.00;101261.03;5285459;28;20020;-78
2022/02/20 02:23:47;;;;;;;17.92;4.28;;;;;;;4.19;100.00;101261.88;5284635;28;20076;-78
2022/02/20 02:26:19;;;;;;;15.27;3.90;;;;;;;4.22;100.00;101251.88;5285650;28;20165;-78
2022/02/20 02:28:50;;;;;;;15.45;3.47;;;;;;;4.18;100.00;101245.09;5285666;28;20043;-78
2022/02/20 02:31:20;;;;;;;8.88;3.63;;;;;;;4.12;100.00;101249.06;5285666;28;20062;-78
2022/02/20 02:33:51;;;;;;;21.58;4.00;;;;;;;4.04;100.00;101239.97;5285599;28;20446;-78
2022/02/20 02:36:21;;;;;;;9.40;3.40;;;;;;;3.94;100.00;101241.63;5285070;28;20042;-78
2022/02/20 02:38:52;;;;;;;16.65;2.80;;;;;;;3.91;100.00;101232.06;5285465;28;20024;-78
2022/02/20 02:41:23;;;;;;;9.70;3.13;;;;;;;3.87;100.00;101244.75;5285398;28;20026;-78
2022/02/20 02:43:53;;;;;;;14.82;2.85;;;;;;;3.88;100.00;101237.63;5285296;28;20103;-78
2022/02/20 02:46:24;;;;;;;13.85;2.47;;;;;;;3.87;100.00;101236.78;5285462;28;20058;-78
2022/02/20 02:49:09;;;;;;;14.10;2.70;;;;;;;3.90;100.00;101241.84;5285429;28;20043;-78
2022/02/20 02:51:40;;;;;;;19.67;2.97;;;;;;;4.02;100.00;101237.44;5285201;28;20035;-78
2022/02/20 02:54:17;;;;;;;16.17;2.03;;;;;;;4.08;100.00;101236.13;5285146;28;20031;-78
2022/02/20 02:56:50;;;;;;;20.58;3.25;;;;;;;4.18;100.00;101226.50;5271623;28;20489;-79
2022/02/20 02:59:21;;;;;;;21.08;2.97;;;;;;;4.20;100.00;101231.69;5266785;28;20035;-78
2022/02/20 03:01:52;;;;;;;13.32;2.50;;;;;;;4.25;100.00;101234.84;5284819;28;20023;-78
2022/02/20 03:04:23;;;;;;;12.35;2.25;;;;;;;4.24;100.00;101234.00;5284914;28;20023;-78
2022/02/20 03:06:53;;;;;;;12.90;2.40;;;;;;;4.26;100.00;101233.88;5285159;28;20023;-78
2022/02/20 03:09:24;;;;;;;11.18;1.70;;;;;;;4.27;100.00;101227.63;5288134;28;20031;-78
2022/02/20 03:11:55;;;;;;;13.70;1.77;;;;;;;4.35;100.00;101218.09;5266478;28;20012;-78
2022/02/20 03:14:25;;;;;;;8.68;1.90;;;;;;;4.46;100.00;101213.78;5287555;28;20022;-79
2022/02/20 03:16:56;;;;;;;13.63;2.15;;;;;;;4.57;100.00;101216.47;5288630;28;20051;-78
2022/02/20 03:19:27;;;;;;;15.43;2.05;;;;;;;4.66;100.00;101207.75;5289085;28;20035;-78
2022/02/20 03:21:57;;;;;;;15.85;1.70;;;;;;;4.75;100.00;101195.56;5288287;28;20027;-78
2022/02/20 03:24:28;;;;;;;10.52;1.48;;;;;;;4.80;100.00;101191.59;5288290;28;20532;-79
2022/02/20 03:26:58;;;;;;;10.38;2.00;;;;;;;4.82;100.00;101178.16;5288951;28;20028;-78
2022/02/20 03:29:28;;;;;;;13.23;1.67;;;;;;;4.81;100.00;101173.81;5288728;28;20483;-78
2022/02/20 03:31:59;;;;;;;12.20;1.50;;;;;;;4.79;100.00;101176.63;5288160;28;20391;-79
2022/02/20 03:34:29;;;;;;;9.77;1.45;;;;;;;4.77;100.00;101162.63;5288083;28;20035;-79
2022/02/20 03:37:00;;;;;;;11.57;1.70;;;;;;;4.76;100.00;101154.72;5288018;28;20393;-79
2022/02/20 03:39:31;;;;;;;21.90;3.28;;;;;;;4.77;100.00;101149.31;5288605;28;20821;-78
2022/02/20 03:42:02;;;;;;;15.32;2.50;;;;;;;4.82;100.00;101139.16;5288065;28;20028;-78
2022/02/20 03:44:33;;;;;;;14.68;2.05;;;;;;;4.89;100.00;101135.03;5287811;28;20153;-79
2022/02/20 03:47:03;;;;;;;14.38;2.58;;;;;;;4.95;100.00;101136.34;5287932;28;20110;-79
2022/02/20 03:49:34;;;;;;;17.58;3.38;;;;;;;4.98;100.00;101133.47;5269770;28;20076;-79
2022/02/20 03:52:05;;;;;;;19.38;3.03;;;;;;;5.06;100.00;101139.00;5288191;28;20486;-79
2022/02/20 03:54:35;;;;;;;25.60;3.58;;;;;;;5.18;100.00;101137.19;5287707;28;20027;-78
2022/02/20 03:57:06;;;;;;;28.67;3.13;;;;;;;5.25;100.00;101133.03;5287836;28;20460;-78
2022/02/20 03:59:36;;;;;;;29.88;3.70;;;;;;;5.30;100.00;101148.63;5287405;28;20656;-78
2022/02/20 04:02:07;;;;;;;37.42;4.05;;;;;;;5.41;100.00;101144.09;5287803;28;20394;-78
2022/02/20 04:04:38;;;;;;;34.10;4.30;;;;;;;5.50;100.00;101126.56;5287652;28;20457;-78
2022/02/20 04:07:08;;;;;;;33.88;5.20;;;;;;;5.67;100.00;101127.81;5287852;28;20015;-78
2022/02/20 04:09:38;;;;;;;33.58;4.65;;;;;;;5.88;100.00;101114.53;5287833;28;20450;-79
2022/02/20 04:12:09;;;;;;;34.38;4.43;;;;;;;6.01;100.00;101125.00;5273861;28;20039;-79
2022/02/20 04:14:40;;;;;;;42.60;5.70;;;;;;;6.17;100.00;101122.72;5287299;28;20036;-78
2022/02/20 04:17:10;;;;;;;39.58;5.68;;;;;;;6.32;100.00;101118.75;5287432;28;20012;-78
2022/02/20 04:19:41;;;;;;;46.05;6.50;;;;;;;6.41;100.00;101115.28;5286590;28;20402;-79
2022/02/20 04:22:12;;;;;;;42.05;6.10;;;;;;;6.51;100.00;101102.00;5286162;28;20020;-79
2022/02/20 04:24:43;;;;;;;44.08;5.95;;;;;;;6.70;100.00;101103.91;5287037;28;20505;-79
2022/02/20 04:27:14;;;;;;;45.20;5.68;;;;;;;6.80;100.00;101107.47;5287342;28;20043;-79
2022/02/20 04:29:45;;;;;;;50.00;5.75;;;;;;;6.94;100.00;101104.41;5287002;28;20122;-78
2022/02/20 04:32:15;;;;;;;40.65;5.65;;;;;;;7.03;100.00;101093.88;5286895;28;20038;-78
2022/02/20 04:34:46;;;;;;;41.88;6.85;;;;;;;7.14;100.00;101080.47;5286798;28;20047;-78
2022/02/20 04:37:16;;;;;;;43.97;5.30;;;;;;;7.18;100.00;101082.72;5286685;28;20059;-79
2022/02/20 04:39:47;;;;;;;37.70;6.95;;;;;;;7.31;100.00;101079.75;5286905;28;20065;-79
2022/02/20 04:42:17;;;;;;;37.83;5.60;;;;;;;7.37;100.00;101081.03;5287043;28;20035;-79
2022/02/20 04:44:48;;;;;;;37.08;4.65;;;;;;;7.45;100.00;101068.66;5286764;28;20019;-78
2022/02/20 04:47:19;;;;;;;40.50;5.32;;;;;;;7.49;100.00;101054.06;5288554;28;20453;-79
2022/02/20 04:49:49;;;;;;;38.33;4.95;;;;;;;7.58;100.00;101052.38;5286509;28;20028;-77
2022/02/20 04:52:20;;;;;;;47.53;6.07;;;;;;;7.64;100.00;101038.47;5287469;28;20028;-76
2022/02/20 04:54:51;;;;;;;41.25;4.05;;;;;;;7.70;100.00;101045.88;5289487;28;20007;-76
2022/02/20 04:57:21;;;;;;;39.45;5.25;;;;;;;7.74;100.00;101041.13;5289498;28;20049;-76
2022/02/20 04:59:55;;;;;;;31.20;5.05;;;;;;;7.72;100.00;101027.88;5288757;28;20118;-76
2022/02/20 05:02:25;;;;;;;37.95;4.78;;;;;;;7.84;100.00;101020.56;5286765;28;20364;-76
2022/02/20 05:04:56;;;;;;;39.42;5.07;;;;;;;7.81;100.00;101020.84;5286431;28;20050;-76
2022/02/20 05:07:26;;;;;;;42.28;8.80;;;;;;;7.86;100.00;101025.75;5286496;28;20048;-76
2022/02/20 05:09:57;;;;;;;47.13;8.02;;;;;;;7.90;100.00;101017.31;5286497;28;20474;-76
2022/02/20 05:12:28;;;;;;;31.98;5.15;;;;;;;7.84;100.00;101020.56;5273683;28;20039;-76
2022/02/20 05:14:58;;;;;;;32.03;4.50;;;;;;;7.84;100.00;101007.22;5288126;28;20047;-76
2022/02/20 05:17:29;;;;;;;41.88;5.18;;;;;;;7.86;100.00;101004.38;5286645;28;20055;-76
2022/02/20 05:19:59;;;;;;;40.53;6.25;;;;;;;7.84;100.00;101006.38;5286343;28;20044;-76
2022/02/20 05:22:29;;;;;;;42.22;5.72;;;;;;;7.81;100.00;100998.63;5283659;28;20026;-76
2022/02/20 05:25:00;;;;;;;31.42;6.82;;;;;;;7.85;100.00;101000.88;5285950;28;20020;-76
2022/02/20 05:27:31;;;;;;;27.70;4.55;;;;;;;7.84;100.00;101001.88;5268085;28;20128;-77
2022/02/20 05:30:02;;;;;;;31.92;4.95;;;;;;;7.83;100.00;100994.84;5285765;28;20053;-76
2022/02/20 05:32:32;;;;;;;35.63;4.05;;;;;;;7.85;100.00;100989.34;5285993;28;20024;-76
2022/02/20 05:35:03;;;;;;;43.95;5.47;;;;;;;7.82;100.00;100971.78;5285772;28;20023;-76
2022/02/20 05:37:46;;;;;;;32.88;5.95;;;;;;;7.87;100.00;100971.34;5286962;28;20020;-76
2022/02/20 05:40:19;;;;;;;24.40;4.00;;;;;;;7.90;100.00;100966.56;5287334;28;20080;-76
2022/02/20 05:42:54;;;;;;;23.75;4.22;;;;;;;7.89;100.00;100972.91;5287430;28;20391;-76
2022/02/20 05:45:25;;;;;;;36.25;4.32;;;;;;;7.92;100.00;100948.53;5274390;28;20678;-76
2022/02/20 05:47:55;;;;;;;23.50;4.07;;;;;;;7.96;100.00;100936.59;5287968;28;20011;-76
2022/02/20 05:50:26;;;;;;;46.65;6.57;;;;;;;7.98;100.00;100937.28;5269439;28;20664;-76
2022/02/20 05:52:57;;;;;;;22.60;3.95;;;;;;;8.02;100.00;100919.97;5287921;28;20026;-76
2022/02/20 05:55:27;;;;;;;29.23;3.78;;;;;;;8.03;100.00;100927.00;5287153;28;20514;-76
2022/02/20 05:57:58;;;;;;;23.75;4.60;;;;;;;8.06;100.00;100939.22;5267534;28;20046;-77
2022/02/20 06:00:28;;;;;;;25.48;3.75;;;;;;;8.17;100.00;100930.16;5286291;28;20024;-79
2022/02/20 06:03:00;;;;;;;25.55;4.57;;;;;;;8.23;100.00;100921.53;5286874;28;20065;-79
2022/02/20 06:05:31;;;;;;;24.40;4.43;;;;;;;8.23;100.00;100933.09;5285688;28;20571;-79
2022/02/20 06:08:01;;;;;;;21.30;3.30;;;;;;;8.24;100.00;100920.56;5268826;28;20083;-78
2022/02/20 06:10:32;;;;;;;24.45;3.78;;;;;;;8.26;100.00;100923.91;5287755;28;20508;-77
2022/02/20 06:13:03;;;;;;;25.60;5.53;;;;;;;8.25;100.00;100922.25;5275403;28;20031;-80
2022/02/20 06:15:33;;;;;;;20.50;3.50;;;;;;;8.28;100.00;100922.81;5268367;28;20668;-80
2022/02/20 06:18:04;;;;;;;23.20;3.92;;;;;;;8.29;100.00;100943.19;5269729;28;20382;-78
2022/02/20 06:20:35;;;;;;;32.30;4.80;;;;;;;8.27;100.00;100953.16;5287276;28;20039;-78
2022/02/20 06:23:05;;;;;;;23.60;3.95;;;;;;;8.32;100.00;100939.34;5286874;28;20016;-79
2022/02/20 06:25:36;;;;;;;22.27;3.22;;;;;;;8.32;100.00;100939.34;5286407;28;20209;-83
2022/02/20 06:28:06;;;;;;;24.73;4.00;;;;;;;8.37;100.00;100954.97;5268102;28;20019;-81
2022/02/20 06:30:37;;;;;;;21.08;4.07;;;;;;;8.37;100.00;100941.63;5269406;28;20424;-79
2022/02/20 06:33:07;;;;;;;27.35;5.47;;;;;;;8.38;100.00;100951.31;5270989;28;20368;-79
2022/02/20 06:35:38;;;;;;;17.60;4.30;;;;;;;8.38;100.00;100952.16;5275891;28;20019;-78
2022/02/20 06:38:08;;;;;;;20.02;3.95;;;;;;;8.40;100.00;100952.03;5285519;28;20449;-78
2022/02/20 06:40:39;;;;;;;25.42;3.22;;;;;;;8.43;100.00;100959.72;5286438;28;20066;-79
2022/02/20 06:43:09;;;;;;;33.38;4.93;;;;;;;8.44;100.00;100956.94;5289240;28;20031;-78
2022/02/20 06:45:40;;;;;;;20.17;3.20;;;;;;;8.44;100.00;100948.91;5291628;28;20031;-78
2022/02/20 06:48:10;;;;;;;19.73;4.28;;;;;;;8.44;100.00;100945.41;5256665;28;20027;-78
2022/02/20 06:50:41;;;;;;;14.35;3.60;;;;;;;8.46;100.00;100940.72;5292335;28;20094;-78
2022/02/20 06:53:12;;;;;;;16.02;3.13;;;;;;;8.46;100.00;100922.00;5292711;28;20039;-78
2022/02/20 06:55:42;;;;;;;22.42;4.55;;;;;;;8.53;100.00;100939.13;5292154;28;20032;-78
2022/02/20 06:58:13;;;;;;;20.50;4.45;;;;;;;8.47;100.00;100956.59;5292189;28;20015;-78
2022/02/20 07:00:43;;;;;;;26.83;3.35;;;;;;;8.45;100.00;100961.28;5286627;28;20046;-78
2022/02/20 07:03:14;;;;;;;12.50;3.78;;;;;;;8.48;100.00;100958.31;5289465;28;20070;-78
2022/02/20 07:05:44;;;;;;;21.60;3.65;;;;;;;8.46;100.00;100962.94;5291248;27;20020;-78
2022/02/20 07:08:15;;;;;;;16.85;4.35;;;;;;;8.43;100.00;100965.06;5291870;28;20372;-78
2022/02/20 07:10:45;;;;;;;21.60;3.60;;;;;;;8.45;100.00;100963.94;5289130;28;20019;-78
2022/02/20 07:13:16;;;;;;;27.45;5.40;;;;;;;8.45;100.00;100971.13;5262226;28;20030;-78
2022/02/20 07:15:48;;;;;;;22.20;4.05;;;;;;;8.43;100.00;100967.75;5289646;28;20083;-78
2022/02/20 07:18:18;;;;;;;24.90;3.80;;;;;;;8.39;100.00;100974.41;5289617;28;20424;-78
2022/02/20 07:20:49;;;;;;;16.83;3.60;;;;;;;8.37;100.00;100973.69;5290235;28;20024;-78
2022/02/20 07:23:19;;;;;;;15.80;4.07;;;;;;;8.37;100.00;100984.38;5289477;28;20047;-78
2022/02/20 07:25:50;;;;;;;16.58;3.97;;;;;;;8.34;100.00;100980.16;5271296;28;20114;-78
2022/02/20 07:28:21;;;;;;;19.05;4.07;;;;;;;8.33;100.00;100994.50;5288941;28;20023;-78
2022/02/20 07:30:52;;;;;;;13.48;4.00;;;;;;;8.29;100.00;100977.94;5289228;28;20076;-79
2022/02/20 07:33:22;;;;;;;26.92;5.40;;;;;;;8.27;100.00;100984.41;5290928;28;20094;-78
2022/02/20 07:35:52;;;;;;;16.05;4.05;;;;;;;8.32;100.00;100976.78;5280044;28;20070;-79
2022/02/20 07:38:23;;;;;;;22.33;5.57;;;;;;;8.28;100.00;100981.59;5288382;28;20019;-78
2022/02/20 07:40:54;;;;;;;16.67;3.60;;;;;;;8.32;100.00;100979.44;5290867;28;20027;-78
2022/02/20 07:43:26;;;;;;;20.60;4.03;;;;;;;8.38;100.00;100962.00;5290172;28;20031;-78
2022/02/20 07:45:56;;;;;;;16.77;3.85;;;;;;;8.34;100.00;100969.47;5289482;28;20494;-78
2022/02/20 07:48:27;;;;;;;20.08;3.80;;;;;;;8.32;100.00;100964.25;5290369;28;20038;-77
2022/02/20 07:50:57;;;;;;;18.63;4.20;;;;;;;8.37;100.00;100958.50;5272036;28;20055;-78
2022/02/20 07:53:29;;;;;;;21.38;3.90;;;;;;;8.36;100.00;100934.56;5290638;28;20031;-77
2022/02/20 07:55:59;;;;;;;24.30;4.72;;;;;;;8.37;100.00;100939.78;5289404;28;20082;-77
2022/02/20 07:58:30;;;;;;;16.33;3.72;;;;;;;8.40;100.00;100938.66;5301638;28;20015;-78
2022/02/20 08:01:01;;;;;;;17.27;3.22;;;;;;;8.44;100.00;100932.88;5304518;28;20023;-77
2022/02/20 08:03:31;;;;;;;19.10;4.05;;;;;;;8.44;100.00;100935.53;5301236;28;20050;-77
2022/02/20 08:06:03;;;;;;;18.70;3.97;;;;;;;8.51;100.00;100951.81;5298906;28;20027;-77
2022/02/20 08:08:34;;;;;;;20.15;3.25;;;;;;;8.49;100.00;100946.63;5299082;28;20023;-78
2022/02/20 08:11:04;;;;;;;18.52;4.05;;;;;;;8.50;100.00;100939.44;5275786;28;20028;-78
2022/02/20 08:13:35;;;;;;;22.50;3.65;;;;;;;8.48;100.00;100955.63;5289117;28;20514;-80
2022/02/20 08:16:05;;;;;;;17.88;4.00;;;;;;;8.55;100.00;100958.53;5252828;28;20034;-77
2022/02/20 08:18:36;;;;;;;11.40;3.08;;;;;;;8.56;100.00;100939.66;5279080;28;20051;-76
2022/02/20 08:21:06;;;;;;;18.58;3.35;;;;;;;8.65;100.00;100961.16;5297916;28;20076;-76
2022/02/20 08:23:37;;;;;;;13.93;2.97;;;;;;;8.69;100.00;100958.03;5297246;28;20042;-77
2022/02/20 08:26:08;;;;;;;12.05;2.78;;;;;;;8.65;100.00;100966.50;5297488;28;20020;-77
2022/02/20 08:28:38;;;;;;;12.15;2.85;;;;;;;8.69;100.00;100963.38;5297647;28;20015;-76
2022/02/20 08:31:09;;;;;;;16.10;2.97;;;;;;;8.67;100.00;100960.00;5278562;28;20043;-76
2022/02/20 08:33:40;;;;;;;14.85;3.65;;;;;;;8.62;100.00;100951.59;5291648;28;20016;-77
2022/02/20 08:36:11;;;;;;;16.05;2.80;;;;;;;8.63;100.00;100961.28;5268822;28;20027;-77
2022/02/20 08:38:41;;;;;;;15.52;3.08;;;;;;;8.64;100.00;100979.03;5286424;28;20024;-77
2022/02/20 08:41:12;;;;;;;16.25;2.83;;;;;;;8.56;100.00;100962.91;5286583;28;20133;-77
2022/02/20 08:43:42;;;;;;;13.18;2.50;;;;;;;8.59;100.00;100980.50;5275841;28;20031;-77
2022/02/20 08:46:13;;;;;;;14.20;3.55;;;;;;;8.57;100.00;100957.38;5275263;28;20032;-76
2022/02/20 08:48:45;;;;;;;26.33;3.35;;;;;;;8.62;100.00;100956.09;5294508;28;20095;-76
2022/02/20 08:51:16;;;;;;;11.85;2.22;;;;;;;8.66;100.00;100950.31;5275390;28;20530;-76
2022/02/20 08:53:47;;;;;;;16.58;3.05;;;;;;;8.64;100.00;100924.72;5292746;28;20019;-77
2022/02/20 08:56:19;;;;;;;16.48;3.80;;;;;;;8.70;100.00;100926.78;5292456;28;20107;-77
2022/02/20 08:58:50;;;;;;;12.57;2.45;;;;;;;8.74;100.00;100918.31;5272522;28;20023;-77
2022/02/20 09:01:21;;;;;;;17.27;4.93;;;;;;;8.82;100.00;100925.53;5291864;28;20024;-77
2022/02/20 09:03:51;;;;;;;12.30;2.95;;;;;;;8.88;100.00;100906.19;5284349;28;20027;-77
2022/02/20 09:06:22;;;;;;;23.13;3.58;;;;;;;9.03;100.00;100911.84;5292085;28;20536;-77
2022/02/20 09:08:53;;;;;;;28.40;3.58;;;;;;;9.00;100.00;100913.00;5290396;28;20030;-76
2022/02/20 09:11:24;;;;;;;19.50;3.33;;;;;;;9.05;100.00;100897.31;5291736;28;20023;-76
2022/02/20 09:13:55;;;;;;;21.77;5.97;;;;;;;9.20;100.00;100910.16;5295255;27;20015;-76
2022/02/20 09:16:25;;;;;;;15.32;4.40;;;;;;;9.21;100.00;100898.44;5288818;28;20026;-76
2022/02/20 09:18:57;;;;;;;20.75;3.58;;;;;;;9.22;100.00;100900.13;5290572;28;20019;-77
2022/02/20 09:21:27;;;;;;;32.42;4.88;;;;;;;9.33;100.00;100898.03;5287942;28;20106;-78
2022/02/20 09:23:58;;;;;;;22.90;3.33;;;;;;;9.36;100.00;100907.59;5286836;28;20111;-77
2022/02/20 09:26:28;;;;;;;20.40;3.85;;;;;;;9.43;100.00;100915.81;5287887;28;20426;-79
2022/02/20 09:28:59;;;;;;;14.30;3.55;;;;;;;9.50;100.00;100904.34;5288748;28;20027;-78
2022/02/20 09:31:30;;;;;;;21.17;3.85;;;;;;;9.56;100.00;100906.38;5269429;28;20034;-77
2022/02/20 09:34:00;;;;;;;23.02;3.88;;;;;;;9.66;100.00;100910.78;5274456;28;20059;-78
2022/02/20 09:36:31;;;;;;;16.88;5.25;;;;;;;9.68;100.00;100912.31;5287416;28;20099;-78
2022/02/20 09:39:03;;;;;;;15.05;2.90;;;;;;;9.65;100.00;100903.75;5287699;28;20049;-78
2022/02/20 09:41:36;;;;;;;13.77;2.47;;;;;;;9.76;100.00;100898.97;5275164;28;20049;-78
2022/02/20 09:44:06;;;;;;;15.80;2.97;;;;;;;9.83;100.00;100899.16;5287048;28;20510;-79
2022/02/20 09:46:41;;;;;;;13.35;2.35;;;;;;;9.78;100.00;100893.44;5286678;28;20027;-78
2022/02/20 09:49:12;;;;;;;25.00;4.43;;;;;;;9.89;100.00;100892.31;5286564;28;20040;-77
2022/02/20 09:51:42;;;;;;;14.18;2.83;;;;;;;9.92;100.00;100898.19;5286312;28;20030;-77
2022/02/20 09:54:13;;;;;;;13.70;2.92;;;;;;;10.05;100.00;100908.47;5286146;28;20631;-78
2022/02/20 09:56:43;;;;;;;12.20;2.40;;;;;;;9.95;100.00;100903.25;5286727;28;20034;-78
2022/02/20 09:59:14;;;;;;;12.13;2.17;;;;;;;9.94;100.00;100901.56;5286738;28;20022;-78
2022/02/20 10:02:05;;;;;;;21.25;4.32;;;;;;;10.00;100.00;100908.97;5287276;28;20036;-78
2022/02/20 10:04:39;;;;;;;12.43;3.85;;;;;;;10.16;100.00;100900.13;5288282;28;20023;-77
2022/02/20 10:07:29;;;;;;;20.05;5.10;;;;;;;10.32;100.00;100892.19;5288456;28;20514;-78
2022/02/20 10:10:05;;;;;;;24.67;4.00;;;;;;;10.38;100.00;100878.09;5287837;28;20097;-77
2022/02/20 10:12:36;;;;;;;21.92;4.30;;;;;;;10.30;100.00;100869.22;5273785;28;20072;-78
2022/02/20 10:15:25;;;;;;;25.17;3.67;;;;;;;10.33;100.00;100875.06;5284700;28;20436;-78
2022/02/20 10:18:11;;;;;;;19.48;3.60;;;;;;;10.40;100.00;100874.44;5286723;28;20039;-78
2022/02/20 10:20:42;;;;;;;18.35;3.78;;;;;;;10.29;100.00;100883.59;5291060;28;20031;-77
2022/02/20 10:23:14;;;;;;;23.83;3.75;;;;;;;10.37;100.00;100879.13;5291065;28;21024;-78
2022/02/20 10:25:45;;;;;;;19.83;3.88;;;;;;;10.41;100.00;100881.47;5273186;28;20631;-78
2022/02/20 10:28:18;;;;;;;22.90;4.15;;;;;;;10.23;100.00;100882.38;5272829;28;20038;-77
2022/02/20 10:30:49;;;;;;;25.63;4.75;;;;;;;10.22;100.00;100879.88;5290730;28;20032;-78
2022/02/20 10:33:22;;;;;;;19.65;3.42;;;;;;;10.16;100.00;100877.84;5272317;28;20032;-77
2022/02/20 10:35:54;;;;;;;25.48;4.65;;;;;;;10.15;100.00;100890.44;5271656;28;20106;-78
2022/02/20 10:38:26;;;;;;;18.90;4.28;;;;;;;10.10;100.00;100874.81;5290308;28;20042;-79
2022/02/20 10:40:56;;;;;;;22.77;3.17;;;;;;;10.02;100.00;100877.47;5290608;28;20304;-78
2022/02/20 10:43:33;;;;;;;21.90;3.35;;;;;;;10.01;100.00;100872.28;5272117;28;20051;-78
2022/02/20 10:46:08;;;;;;;49.40;13.02;;;;;;;10.09;100.00;100897.28;5289114;28;20030;-78
2022/02/20 10:48:42;;;;;;;19.48;4.22;;;;;;;10.02;100.00;100890.88;5272374;28;20019;-78
2022/02/20 10:51:14;;;;;;;33.42;7.72;;;;;;;10.01;100.00;100883.00;5289881;28;20027;-77
2022/02/20 10:53:48;;;;;;;25.10;4.55;;;;;;;9.99;100.00;100885.84;5289621;28;20020;-79
2022/02/20 10:56:37;;;;;;;21.65;3.78;;;;;;;9.93;100.00;100889.16;5289652;28;20024;-78
2022/02/20 10:59:08;;;;;;;18.98;4.60;;;;;;;9.93;100.00;100874.91;5272057;28;20490;-83
2022/02/20 11:01:39;;;;;;;22.38;4.35;;;;;;;9.91;100.00;100869.72;5290569;28;20035;-76
2022/02/20 11:04:10;;;;;;;26.70;5.20;;;;;;;9.85;100.00;100860.50;5289365;28;20395;-78
2022/02/20 11:09:32;;;;;;;34.45;4.78;;;;;;;9.93;100.00;100862.34;5290306;28;20052;-79
2022/02/20 11:12:03;;;;;;;21.73;4.45;;;;;;;9.92;100.00;100854.47;5276167;28;20151;-79
2022/02/20 11:14:34;;;;;;;29.52;5.15;;;;;;;9.96;100.00;100855.84;5274204;28;20479;-79
2022/02/20 11:17:06;;;;;;;40.22;8.63;;;;;;;9.99;100.00;100852.81;5271102;28;20024;-79
2022/02/20 11:19:39;;;;;;;23.70;5.05;;;;;;;9.97;100.00;100865.56;5289466;28;20024;-78
2022/02/20 11:22:10;;;;;;;37.65;6.82;;;;;;;9.97;100.00;100866.41;5287685;28;20034;-78
2022/02/20 11:24:44;;;;;;;30.83;5.05;;;;;;;9.87;100.00;100860.31;5270820;28;20398;-78
2022/02/20 11:27:18;;;;;;;33.53;5.80;;;;;;;9.91;100.00;100872.41;5289520;28;20424;-78
2022/02/20 11:29:49;;;;;;;35.38;4.70;;;;;;;9.89;100.00;100868.19;5271742;28;20035;-78
2022/02/20 11:32:20;;;;;;;34.58;8.10;;;;;;;9.87;100.00;100854.97;5289186;28;20434;-79
2022/02/20 11:34:52;;;;;;;38.78;5.78;;;;;;;9.91;100.00;100861.69;5289178;28;20076;-79
2022/02/20 11:37:22;;;;;;;29.98;4.40;;;;;;;9.83;100.00;100856.28;5271621;28;20039;-79
2022/02/20 11:40:14;;;;;;;30.25;5.70;;;;;;;9.84;100.00;100841.91;5289209;28;20504;-79